Terminal Aerodrome Forecast
Issued by NWS Wichita, KS

Current Version | Previous Version | Text Only | Print | Product List | Glossary On
Versions: 1 2 3 4 5 6 7 8 9 10 11 12 13 14 15 16 17 18 19 20 21 22 23 24 25 26 27 28 29
000
FTUS43 KICT 220522
TAFICT
TAF
KICT 220522Z 2206/2306 03010KT 6SM -RA BR OVC035
     FM220900 01013KT 5SM -RA BR OVC025
     FM221200 36015G22KT 6SM BR OVC020
     FM221500 35017G25KT P6SM SCT150
     FM230000 33009KT P6SM SKC=

USA.gov is the U.S. government's official web portal to all federal, state and local government web resources and services.